createdAt,value
2023-04-04T08:43:22.297Z,5.80
2023-04-04T08:43:33.995Z,5.10
2023-04-04T08:43:43.284Z,5.40
2023-04-04T08:43:53.656Z,5.20
2023-04-04T08:44:03.765Z,4.80
2023-04-04T08:44:13.715Z,25.10
2023-04-04T08:44:23.843Z,24.10
2023-04-04T08:44:34.010Z,23.60
2023-04-04T08:44:44.137Z,26.70
2023-04-04T08:44:54.209Z,28.30
2023-04-04T08:45:04.375Z,27.50
2023-04-04T08:45:14.439Z,10.80
2023-04-04T08:45:24.574Z,10.80
2023-04-04T08:45:34.742Z,10.80
2023-04-04T08:45:44.900Z,7.20
2023-04-04T08:45:55.037Z,4.90
2023-04-04T08:46:05.120Z,5.10
2023-04-04T08:46:15.359Z,3.70
2023-04-04T08:46:25.377Z,3.80
2023-04-04T08:46:35.617Z,4.00
2023-04-04T08:46:45.861Z,5.20
2023-04-04T08:46:55.885Z,5.30
2023-04-04T08:47:06.071Z,3.40
2023-04-04T08:47:16.115Z,3.60
2023-04-04T08:47:26.219Z,3.70
2023-04-04T08:47:36.538Z,3.50
2023-04-04T08:47:46.578Z,2.70
2023-04-04T08:47:56.666Z,4.60
2023-04-04T08:48:06.827Z,5.10
2023-04-04T08:48:16.894Z,6.70
2023-04-04T08:48:27.031Z,6.30
2023-04-04T08:48:37.183Z,6.30
2023-04-04T08:48:47.300Z,7.00
2023-04-04T08:48:57.539Z,5.00
2023-04-04T08:49:07.555Z,3.60
2023-04-04T08:49:17.685Z,3.10
2023-04-04T08:49:27.956Z,3.40
2023-04-04T08:49:38.114Z,4.40
2023-04-04T08:49:48.197Z,3.20
2023-04-04T08:49:58.291Z,3.40
2023-04-04T08:50:08.397Z,3.50
2023-04-04T08:50:18.511Z,3.10
2023-04-04T08:50:28.674Z,2.80
2023-04-04T08:50:39.063Z,2.00
2023-04-04T08:50:48.929Z,2.00
2023-04-04T08:50:59.084Z,4.90
2023-04-04T08:51:09.140Z,4.80
2023-04-04T08:51:19.362Z,4.80
2023-04-04T08:51:29.964Z,4.90
2023-04-04T08:51:39.547Z,5.00
2023-04-04T08:51:49.683Z,5.10
2023-04-04T08:51:59.973Z,2.20
2023-04-04T08:52:09.913Z,2.10
2023-04-04T08:52:20.127Z,2.70
2023-04-04T08:52:30.288Z,2.60
2023-04-04T08:52:40.413Z,2.80
2023-04-04T08:52:50.531Z,2.90
2023-04-04T08:53:00.627Z,2.80
2023-04-04T08:53:10.768Z,2.90
2023-04-04T08:53:21.589Z,2.30
2023-04-04T08:53:31.875Z,2.50
2023-04-04T08:53:41.287Z,2.50
2023-04-04T08:53:51.243Z,2.40
2023-04-04T08:54:01.448Z,2.30
2023-04-04T08:54:11.486Z,2.30
2023-04-04T08:54:21.516Z,4.20
2023-04-04T08:54:41.780Z,41.60
2023-04-04T08:54:51.904Z,42.80
2023-04-04T08:55:02.092Z,48.40
2023-04-04T08:55:12.192Z,57.40
2023-04-04T08:55:22.334Z,56.60
2023-04-04T08:55:32.377Z,57.90
2023-04-04T08:55:42.555Z,32.90
2023-04-04T08:55:52.571Z,37.20
2023-04-04T08:56:02.812Z,38.40
2023-04-04T08:56:12.851Z,31.30
2023-04-04T08:56:23.070Z,30.00
2023-04-04T08:56:33.176Z,21.00
2023-04-04T08:56:43.329Z,18.30
2023-04-04T08:56:53.451Z,13.10
2023-04-04T08:57:03.457Z,16.60
2023-04-04T08:57:13.531Z,16.40
2023-04-04T08:57:23.731Z,14.60
2023-04-04T08:57:33.897Z,19.50
2023-04-04T08:57:44.352Z,23.00
2023-04-04T08:57:54.011Z,24.30
2023-04-04T08:58:04.152Z,19.60
2023-04-04T08:58:14.259Z,21.40
2023-04-04T08:58:24.451Z,22.70
2023-04-04T08:58:34.430Z,20.10
2023-04-04T08:58:44.571Z,17.10
2023-04-04T08:58:54.761Z,18.40
2023-04-04T08:59:05.002Z,17.70
2023-04-04T08:59:15.118Z,13.90
2023-04-04T08:59:25.073Z,13.60
2023-04-04T08:59:35.248Z,15.50
2023-04-04T08:59:45.313Z,20.50
2023-04-04T08:59:55.495Z,19.70
2023-04-04T09:00:05.827Z,26.00
2023-04-04T09:00:15.670Z,30.70
2023-04-04T09:00:25.819Z,29.20
2023-04-04T09:00:35.919Z,28.20
2023-04-04T09:00:46.611Z,23.50
2023-04-04T09:00:56.153Z,21.70
2023-04-04T09:01:06.299Z,13.30
2023-04-04T09:01:16.372Z,10.10
2023-04-04T09:01:26.653Z,8.70
2023-04-04T09:01:36.667Z,5.80
2023-04-04T09:01:46.838Z,5.30
2023-04-04T09:01:56.950Z,5.40
2023-04-04T09:02:07.055Z,5.40
2023-04-04T09:02:17.209Z,4.50
2023-04-04T09:02:27.304Z,5.90
2023-04-04T09:02:37.366Z,6.30
2023-04-04T09:02:47.501Z,6.80
2023-04-04T09:02:57.648Z,6.70
2023-04-04T09:03:08.037Z,6.00
2023-04-04T09:03:17.804Z,6.80
2023-04-04T09:03:28.124Z,5.20
2023-04-04T09:03:38.073Z,4.40
2023-04-04T09:03:48.251Z,4.40
2023-04-04T09:03:58.333Z,4.70
2023-04-04T09:04:08.507Z,4.60
2023-04-04T09:04:18.449Z,3.20
2023-04-04T09:04:28.685Z,5.80
2023-04-04T09:04:38.860Z,6.30
2023-04-04T09:04:58.459Z,6.50
2023-04-04T09:05:11.252Z,6.20
2023-04-04T09:05:17.130Z,6.50
2023-04-04T09:05:27.235Z,4.40
2023-04-04T09:05:37.417Z,3.50
2023-04-04T09:05:47.536Z,5.70
2023-04-04T09:05:57.829Z,8.60
2023-04-04T09:06:18.003Z,10.00
2023-04-04T09:06:27.994Z,10.10
2023-04-04T09:06:38.191Z,12.20
2023-04-04T09:06:48.235Z,10.60
2023-04-04T09:06:58.405Z,7.90
2023-04-04T09:07:08.452Z,7.90
2023-04-04T09:07:18.714Z,7.90
2023-04-04T09:07:28.715Z,13.40
2023-04-04T09:07:39.836Z,13.60
2023-04-04T09:07:49.508Z,22.20
2023-04-04T09:07:59.131Z,23.50
2023-04-04T09:08:09.173Z,22.90
2023-04-04T09:08:19.383Z,23.40
2023-04-04T09:08:29.420Z,18.20
2023-04-04T09:08:39.582Z,17.70
2023-04-04T09:08:51.574Z,8.40
2023-04-04T09:08:59.817Z,9.90
2023-04-04T09:09:09.947Z,10.30
2023-04-04T09:09:20.059Z,9.20
2023-04-04T09:09:30.270Z,9.50
2023-04-04T09:09:40.265Z,7.20
2023-04-04T09:10:00.516Z,5.10
2023-04-04T09:10:10.591Z,6.50
2023-04-04T09:10:20.938Z,6.40
2023-04-04T09:10:30.972Z,6.60
2023-04-04T09:10:41.231Z,8.70
2023-04-04T09:10:51.061Z,9.40
2023-04-04T09:11:01.260Z,11.10
2023-04-04T09:11:11.297Z,9.50
2023-04-04T09:11:21.525Z,13.20
2023-04-04T09:11:31.459Z,11.40
2023-04-04T09:11:41.748Z,10.20
2023-04-04T09:11:51.890Z,9.90
2023-04-04T09:12:01.994Z,6.60
2023-04-04T09:12:12.141Z,7.30
2023-04-04T09:12:22.331Z,3.50
2023-04-04T09:12:32.348Z,5.50
2023-04-04T09:12:42.623Z,7.30
2023-04-04T09:12:53.943Z,7.10
2023-04-04T09:13:14.932Z,7.10
2023-04-04T09:13:22.237Z,6.30
2023-04-04T09:13:28.297Z,11.60
2023-04-04T09:13:40.241Z,13.10
2023-04-04T09:13:48.487Z,12.10
2023-04-04T09:13:58.999Z,12.40
2023-04-04T09:14:08.865Z,12.40
2023-04-04T09:14:28.896Z,11.00
2023-04-04T09:14:39.114Z,8.10
2023-04-04T09:14:49.922Z,9.70
2023-04-04T09:14:59.332Z,12.00
2023-04-04T09:15:09.420Z,16.40
2023-04-04T09:15:19.495Z,11.90
2023-04-04T09:15:29.763Z,11.60
2023-04-04T09:15:39.775Z,15.90
2023-04-04T09:16:00.005Z,16.20
2023-04-04T09:16:10.167Z,20.70
2023-04-04T09:16:20.319Z,25.50
2023-04-04T09:16:30.381Z,26.00
2023-04-04T09:16:40.747Z,20.80
2023-04-04T09:16:50.845Z,17.70
2023-04-04T09:17:00.716Z,16.10
2023-04-04T09:17:10.892Z,7.80
2023-04-04T09:17:20.992Z,5.40
2023-04-04T09:17:31.123Z,5.40
2023-04-04T09:17:41.211Z,5.50
2023-04-04T09:17:51.386Z,6.40
2023-04-04T09:18:01.540Z,7.80
2023-04-04T09:18:11.937Z,10.50
2023-04-04T09:18:21.694Z,11.00
2023-04-04T09:18:31.913Z,10.40
2023-04-04T09:18:41.969Z,11.40
2023-04-04T09:18:52.065Z,13.20
2023-04-04T09:19:02.234Z,11.70
2023-04-04T09:19:12.320Z,8.20
2023-04-04T09:19:23.842Z,11.30
2023-04-04T09:19:32.553Z,11.30
2023-04-04T09:19:42.789Z,12.40
2023-04-04T09:19:52.860Z,11.40
2023-04-04T09:20:03.035Z,12.40
2023-04-04T09:20:13.039Z,15.80
2023-04-04T09:20:23.157Z,12.70
2023-04-04T09:20:33.209Z,15.40
2023-04-04T09:20:43.716Z,14.50
2023-04-04T09:20:53.466Z,20.50
2023-04-04T09:21:03.596Z,22.40
2023-04-04T09:21:13.947Z,21.00
2023-04-04T09:21:23.827Z,21.50
2023-04-04T09:21:33.825Z,20.20
2023-04-04T09:21:43.995Z,19.80
2023-04-04T09:21:54.187Z,11.80
2023-04-04T09:22:04.376Z,10.90
2023-04-04T09:22:14.619Z,10.80
2023-04-04T09:22:24.643Z,12.60
2023-04-04T09:22:34.767Z,11.20
2023-04-04T09:22:44.879Z,11.90
2023-04-04T09:22:55.022Z,10.70
2023-04-04T09:23:05.139Z,12.00
2023-04-04T09:23:15.299Z,10.70
2023-04-04T09:23:25.538Z,10.40
2023-04-04T09:23:35.456Z,9.90
2023-04-04T09:23:45.661Z,7.50
2023-04-04T09:23:55.768Z,7.20
2023-04-04T09:24:05.870Z,6.10
2023-04-04T09:24:15.961Z,6.60
2023-04-04T09:24:26.208Z,8.90
2023-04-04T09:24:36.224Z,8.90
2023-04-04T09:24:46.510Z,9.10
2023-04-04T09:24:56.539Z,9.20
2023-04-04T09:25:06.711Z,8.10
2023-04-04T09:25:16.817Z,8.00
2023-04-04T09:25:26.922Z,4.00
2023-04-04T09:25:37.051Z,4.10
2023-04-04T09:25:56.552Z,4.70
2023-04-04T09:26:08.896Z,5.10
2023-04-04T09:26:14.808Z,3.70
2023-04-04T09:26:24.833Z,4.30
2023-04-04T09:26:35.017Z,5.10
2023-04-04T09:26:45.174Z,4.50
2023-04-04T09:26:55.258Z,4.70
2023-04-04T09:27:15.428Z,5.10
2023-04-04T09:27:25.714Z,4.50
2023-04-04T09:27:35.676Z,3.70
2023-04-04T09:27:45.758Z,3.80
2023-04-04T09:27:55.964Z,2.90
2023-04-04T09:28:06.077Z,3.80
2023-04-04T09:28:16.256Z,4.50
2023-04-04T09:28:26.343Z,4.60
2023-04-04T09:28:36.627Z,5.20
2023-04-04T09:28:46.734Z,5.50
2023-04-04T09:28:56.876Z,5.40
2023-04-04T09:29:06.894Z,4.60
2023-04-04T09:29:16.993Z,4.50
2023-04-04T09:29:27.147Z,4.50
2023-04-04T09:29:37.238Z,4.20
2023-04-04T09:29:47.375Z,4.10
2023-04-04T09:29:57.490Z,4.00
2023-04-04T09:30:07.598Z,3.70
2023-04-04T09:30:17.674Z,3.40
2023-04-04T09:30:27.745Z,3.40
2023-04-04T09:30:37.971Z,3.60
2023-04-04T09:30:48.005Z,3.60
2023-04-04T09:30:58.068Z,4.70
2023-04-04T09:31:08.255Z,198.10
2023-04-04T09:31:18.375Z,126.50
2023-04-04T09:31:28.605Z,101.10
2023-04-04T09:31:38.707Z,85.50
2023-04-04T09:31:48.810Z,75.10
2023-04-04T09:31:58.945Z,68.00
2023-04-04T09:32:09.046Z,26.00
2023-04-04T09:32:19.414Z,29.40
2023-04-04T09:32:29.226Z,22.70
2023-04-04T09:32:39.383Z,19.90
2023-04-04T09:32:49.555Z,21.00
2023-04-04T09:32:59.752Z,25.90
2023-04-04T09:33:09.827Z,25.70
2023-04-04T09:33:20.026Z,18.00
2023-04-04T09:33:30.063Z,18.90
2023-04-04T09:33:40.247Z,21.70
2023-04-04T09:33:50.417Z,15.30
2023-04-04T09:34:00.620Z,10.20
2023-04-04T09:34:10.746Z,10.90
2023-04-04T09:34:20.783Z,10.50
2023-04-04T09:34:31.191Z,9.90
2023-04-04T09:34:41.165Z,8.00
2023-04-04T09:34:51.242Z,8.10
2023-04-04T09:35:01.401Z,19.90
2023-04-04T09:35:11.486Z,18.90
2023-04-04T09:35:21.667Z,27.60
2023-04-04T09:35:31.652Z,34.00
2023-04-04T09:35:41.934Z,36.00
2023-04-04T09:35:52.124Z,37.50
2023-04-04T09:36:02.158Z,24.30
2023-04-04T09:36:12.293Z,26.80
2023-04-04T09:36:22.487Z,20.00
2023-04-04T09:36:32.580Z,16.50
2023-04-04T09:36:42.783Z,14.30
2023-04-04T09:36:52.818Z,12.90
2023-04-04T09:37:02.913Z,12.60
2023-04-04T09:37:12.993Z,8.90
2023-04-04T09:37:23.159Z,8.80
2023-04-04T09:37:33.244Z,5.90
2023-04-04T09:37:43.382Z,6.50
2023-04-04T09:37:53.539Z,12.50
2023-04-04T09:38:03.694Z,23.20
2023-04-04T09:38:13.759Z,25.70
2023-04-04T09:38:24.014Z,26.80
2023-04-04T09:38:34.012Z,29.00
2023-04-04T09:38:44.101Z,28.80
2023-04-04T09:38:54.200Z,26.30
2023-04-04T09:39:04.345Z,15.30
2023-04-04T09:39:14.490Z,12.50
2023-04-04T09:39:24.783Z,10.90
2023-04-04T09:39:34.800Z,13.90
2023-04-04T09:39:44.815Z,12.80
2023-04-04T09:39:55.022Z,9.90
2023-04-04T09:40:05.081Z,10.70
2023-04-04T09:40:15.133Z,13.00
2023-04-04T09:40:25.264Z,12.00
2023-04-04T09:40:35.380Z,6.80
2023-04-04T09:40:45.575Z,8.30
2023-04-04T09:40:55.600Z,7.00
2023-04-04T09:41:05.853Z,9.20
2023-04-04T09:41:15.979Z,7.40
2023-04-04T09:41:26.042Z,10.20
2023-04-04T09:41:36.091Z,10.40
2023-04-04T09:41:46.230Z,8.00
2023-04-04T09:41:56.434Z,7.60
2023-04-04T09:42:06.506Z,5.70
2023-04-04T09:42:16.618Z,10.20
2023-04-04T09:42:26.711Z,9.50
2023-04-04T09:42:36.816Z,10.10
2023-04-04T09:42:47.102Z,12.30
2023-04-04T09:42:57.215Z,12.40
2023-04-04T09:43:07.454Z,12.70
2023-04-04T09:43:17.341Z,8.20
2023-04-04T09:43:27.438Z,9.70
2023-04-04T09:43:37.647Z,9.40
2023-04-04T09:43:47.719Z,7.30
2023-04-04T09:43:57.793Z,7.20
2023-04-04T09:44:07.883Z,7.90
2023-04-04T09:44:18.089Z,8.00
2023-04-04T09:44:28.129Z,5.30
2023-04-04T09:44:38.227Z,5.50
2023-04-04T09:44:48.588Z,6.60
2023-04-04T09:44:58.542Z,8.90
2023-04-04T09:45:08.773Z,8.10
2023-04-04T09:45:29.634Z,7.30
2023-04-04T09:45:37.655Z,7.10
2023-04-04T09:45:43.712Z,8.20
2023-04-04T09:45:53.709Z,7.10
2023-04-04T09:46:03.780Z,5.50
2023-04-04T09:46:13.951Z,6.50
2023-04-04T09:46:24.094Z,6.70
2023-04-04T09:46:44.365Z,4.10
2023-04-04T09:46:54.375Z,12.20
2023-04-04T09:47:04.540Z,12.10
2023-04-04T09:47:18.311Z,11.00
2023-04-04T09:47:33.372Z,10.50
2023-04-04T09:47:39.312Z,10.30
2023-04-04T09:47:49.572Z,3.50
2023-04-04T09:47:59.589Z,4.50
2023-04-04T09:48:09.876Z,6.10
2023-04-04T09:48:19.738Z,7.90
2023-04-04T09:48:40.181Z,12.90
2023-04-04T09:48:50.112Z,12.40
2023-04-04T09:49:00.303Z,11.50
2023-04-04T09:49:12.933Z,9.20
2023-04-04T09:49:20.505Z,8.90
2023-04-04T09:49:30.605Z,11.60
2023-04-04T09:49:40.707Z,8.60
2023-04-04T09:49:50.956Z,13.70
2023-04-04T09:50:01.014Z,14.00
2023-04-04T09:50:11.241Z,16.90
2023-04-04T09:50:21.224Z,16.40
2023-04-04T09:50:31.440Z,13.90
2023-04-04T09:50:41.755Z,13.40
2023-04-04T09:50:51.588Z,8.00
2023-04-04T09:51:01.719Z,11.00
2023-04-04T09:51:11.945Z,8.60
2023-04-04T09:51:21.936Z,8.50
2023-04-04T09:51:32.084Z,10.40
2023-04-04T09:51:42.306Z,9.30
